Time;durP1;ratioP1;P1;durP2;ratioP2;P2;SDS_P1;SDS_P2;PMS_P1;PMS_P2;Temp;Humidity;BMP_temperature;BMP_pressure;BME280_temperature;BME280_humidity;BME280_pressure;Samples;Min_cycle;Max_cycle;Signal;HPM_P1;HPM_P2
2022/09/07 00:01:01;;;;;;;8.32;3.72;;;;;;;;;;5118597;28;20715;-52
2022/09/07 00:03:29;;;;;;;9.73;4.03;;;;;;;;;;5118802;28;20213;-55
2022/09/07 00:05:56;;;;;;;11.82;4.10;;;;;;;;;;5118428;28;20202;-56
2022/09/07 00:08:25;;;;;;;8.98;3.58;;;;;;;;;;5118658;28;20205;-54
2022/09/07 00:11:02;;;;;;;6.88;3.10;;;;;;;;;;5118447;28;20213;-53
2022/09/07 00:13:32;;;;;;;5.22;2.45;;;;;;;;;;5118461;28;20532;-50
2022/09/07 00:16:07;;;;;;;4.18;2.20;;;;;;;;;;5118524;28;20210;-54
2022/09/07 00:18:34;;;;;;;4.50;2.22;;;;;;;;;;5118230;28;20642;-51
2022/09/07 00:21:07;;;;;;;4.43;2.25;;;;;;;;;;5118172;28;20205;-50
2022/09/07 00:23:36;;;;;;;5.43;2.22;;;;;;;;;;5118210;28;20197;-53
2022/09/07 00:26:15;;;;;;;3.67;2.28;;;;;;;;;;5113751;28;20226;-55
2022/09/07 00:28:42;;;;;;;3.35;1.95;;;;;;;;;;5116941;28;20296;-50
2022/09/07 00:31:14;;;;;;;5.97;2.60;;;;;;;;;;5118275;28;20213;-53
2022/09/07 00:33:42;;;;;;;4.22;1.60;;;;;;;;;;5117941;28;20649;-55
2022/09/07 00:36:09;;;;;;;4.90;1.95;;;;;;;;;;5118127;28;20587;-50
2022/09/07 00:38:37;;;;;;;4.95;2.28;;;;;;;;;;5117735;28;20554;-52
2022/09/07 00:41:04;;;;;;;4.22;2.50;;;;;;;;;;5118077;28;20502;-51
2022/09/07 00:43:36;;;;;;;3.83;2.05;;;;;;;;;;5117767;28;20627;-56
2022/09/07 00:46:05;;;;;;;3.97;2.00;;;;;;;;;;5117975;27;20204;-53
2022/09/07 00:48:39;;;;;;;4.85;2.10;;;;;;;;;;5117810;28;20622;-52
2022/09/07 00:51:08;;;;;;;5.03;2.20;;;;;;;;;;5117221;28;20186;-52
2022/09/07 00:53:43;;;;;;;3.83;2.10;;;;;;;;;;5116146;28;20213;-52
2022/09/07 00:56:10;;;;;;;4.30;2.38;;;;;;;;;;5118098;28;20201;-53
2022/09/07 00:58:39;;;;;;;6.03;2.95;;;;;;;;;;5117641;27;20325;-52
2022/09/07 01:01:07;;;;;;;4.88;2.65;;;;;;;;;;5116637;28;20209;-50
2022/09/07 01:03:40;;;;;;;5.63;2.50;;;;;;;;;;5117619;28;20202;-52
2022/09/07 01:06:17;;;;;;;6.20;2.47;;;;;;;;;;5116531;28;20201;-50
2022/09/07 01:08:46;;;;;;;5.40;2.90;;;;;;;;;;5117722;28;20216;-53
2022/09/07 01:11:13;;;;;;;7.40;2.60;;;;;;;;;;5116672;28;20198;-55
2022/09/07 01:13:42;;;;;;;5.85;2.72;;;;;;;;;;5116847;28;20206;-54
2022/09/07 01:16:26;;;;;;;5.75;2.88;;;;;;;;;;5116475;28;20210;-50
2022/09/07 01:19:31;;;;;;;4.43;2.30;;;;;;;;;;5116883;28;20626;-51
2022/09/07 01:22:19;;;;;;;4.90;2.75;;;;;;;;;;5111357;28;20222;-53
2022/09/07 01:25:01;;;;;;;7.07;2.55;;;;;;;;;;5116939;28;20527;-56
2022/09/07 01:27:38;;;;;;;3.72;2.58;;;;;;;;;;5117229;28;20198;-51
2022/09/07 01:30:19;;;;;;;6.15;2.60;;;;;;;;;;5116859;27;20186;-51
2022/09/07 01:33:05;;;;;;;7.25;2.60;;;;;;;;;;5116980;28;20198;-53
2022/09/07 01:35:47;;;;;;;6.07;2.70;;;;;;;;;;5117050;28;20290;-53
2022/09/07 01:38:17;;;;;;;6.68;2.97;;;;;;;;;;5116903;28;20202;-52
2022/09/07 01:40:51;;;;;;;8.25;2.72;;;;;;;;;;5115736;28;20638;-52
2022/09/07 01:43:56;;;;;;;5.47;2.92;;;;;;;;;;5116726;28;20208;-49
2022/09/07 01:46:27;;;;;;;5.38;2.95;;;;;;;;;;5116460;28;20539;-53
2022/09/07 01:49:03;;;;;;;9.38;3.42;;;;;;;;;;5116948;28;20221;-50
2022/09/07 01:51:32;;;;;;;5.40;2.72;;;;;;;;;;5115780;28;20201;-52
2022/09/07 01:54:24;;;;;;;4.90;2.15;;;;;;;;;;5115774;28;20209;-55
2022/09/07 01:56:56;;;;;;;8.18;2.30;;;;;;;;;;5073813;28;20195;-50
2022/09/07 01:59:29;;;;;;;6.88;3.05;;;;;;;;;;5073913;28;20239;-50
2022/09/07 02:02:06;;;;;;;5.22;2.65;;;;;;;;;;5074135;28;20213;-50
2022/09/07 02:04:51;;;;;;;11.30;3.80;;;;;;;;;;5072805;28;20207;-51
2022/09/07 02:07:30;;;;;;;9.07;4.03;;;;;;;;;;5073839;28;20237;-51
2022/09/07 02:10:10;;;;;;;10.80;4.72;;;;;;;;;;5073869;28;20203;-53
2022/09/07 02:13:20;;;;;;;5.82;3.20;;;;;;;;;;5057618;28;20199;-50
2022/09/07 02:15:55;;;;;;;12.77;5.28;;;;;;;;;;5033078;28;20208;-57
2022/09/07 02:18:23;;;;;;;9.23;3.80;;;;;;;;;;5014217;28;20261;-52
2022/09/07 02:20:53;;;;;;;6.00;3.17;;;;;;;;;;5000494;28;20262;-49
2022/09/07 02:23:28;;;;;;;10.00;2.80;;;;;;;;;;5033672;28;20236;-52
2022/09/07 02:26:00;;;;;;;5.18;2.25;;;;;;;;;;5017611;28;20223;-55
2022/09/07 02:28:34;;;;;;;5.38;2.20;;;;;;;;;;5017584;28;20201;-54
2022/09/07 02:31:02;;;;;;;5.40;2.28;;;;;;;;;;5017494;28;20204;-54
2022/09/07 02:33:29;;;;;;;4.22;1.98;;;;;;;;;;5040321;28;20646;-51
2022/09/07 02:35:56;;;;;;;4.35;2.03;;;;;;;;;;5036913;28;20566;-54
2022/09/07 02:38:24;;;;;;;7.75;2.05;;;;;;;;;;5036953;28;20266;-54
2022/09/07 02:40:52;;;;;;;6.32;1.88;;;;;;;;;;5053838;28;20327;-52
2022/09/07 02:43:20;;;;;;;4.70;2.13;;;;;;;;;;5053627;28;20203;-52
2022/09/07 02:46:17;;;;;;;5.45;2.50;;;;;;;;;;5036817;28;20204;-50
2022/09/07 02:48:52;;;;;;;3.40;1.65;;;;;;;;;;5046674;28;20239;-50
2022/09/07 02:51:34;;;;;;;4.32;2.35;;;;;;;;;;5082375;28;20201;-55
2022/09/07 02:54:20;;;;;;;3.20;2.03;;;;;;;;;;5115748;28;20272;-50
2022/09/07 02:56:56;;;;;;;3.78;2.17;;;;;;;;;;5116327;28;20182;-55
2022/09/07 02:59:33;;;;;;;7.32;2.33;;;;;;;;;;5115519;28;20568;-50
2022/09/07 03:02:12;;;;;;;5.90;2.15;;;;;;;;;;5115795;28;20213;-53
2022/09/07 03:05:17;;;;;;;4.20;2.35;;;;;;;;;;5115240;28;20614;-54
2022/09/07 03:08:00;;;;;;;2.90;1.67;;;;;;;;;;5112361;28;20197;-53
2022/09/07 03:10:27;;;;;;;6.97;1.95;;;;;;;;;;5114742;28;20202;-50
2022/09/07 03:12:54;;;;;;;3.67;2.13;;;;;;;;;;5110776;28;20222;-51
2022/09/07 03:15:24;;;;;;;5.18;2.13;;;;;;;;;;5114048;28;20198;-54
2022/09/07 03:17:51;;;;;;;3.67;2.00;;;;;;;;;;5119407;28;20240;-52
2022/09/07 03:20:19;;;;;;;4.53;1.70;;;;;;;;;;5118589;28;20225;-51
2022/09/07 03:22:48;;;;;;;3.72;1.92;;;;;;;;;;5119304;28;20202;-50
2022/09/07 03:25:15;;;;;;;4.68;2.08;;;;;;;;;;5119350;28;20312;-50
2022/09/07 03:27:42;;;;;;;3.03;1.90;;;;;;;;;;5118796;28;20206;-55
2022/09/07 03:30:10;;;;;;;3.35;1.73;;;;;;;;;;5118962;28;20205;-53
2022/09/07 03:32:37;;;;;;;4.50;2.00;;;;;;;;;;5119160;28;20289;-53
2022/09/07 03:35:06;;;;;;;4.50;2.03;;;;;;;;;;5119043;28;20214;-54
2022/09/07 03:37:36;;;;;;;3.33;2.05;;;;;;;;;;5118908;28;20354;-55
2022/09/07 03:40:06;;;;;;;6.80;2.15;;;;;;;;;;5118792;28;20264;-55
2022/09/07 03:42:33;;;;;;;5.22;2.25;;;;;;;;;;5118625;28;20603;-53
2022/09/07 03:45:00;;;;;;;7.95;2.33;;;;;;;;;;5118905;28;20248;-52
2022/09/07 03:47:27;;;;;;;6.57;2.42;;;;;;;;;;5119028;28;20226;-52
2022/09/07 03:49:54;;;;;;;3.00;1.88;;;;;;;;;;5118762;28;20205;-50
2022/09/07 03:52:22;;;;;;;3.75;2.17;;;;;;;;;;5118616;28;20235;-53
2022/09/07 03:54:49;;;;;;;5.47;2.05;;;;;;;;;;5118534;28;20228;-50
2022/09/07 03:57:16;;;;;;;3.30;1.80;;;;;;;;;;5118450;28;20209;-51
2022/09/07 03:59:43;;;;;;;6.82;2.00;;;;;;;;;;5115971;27;20317;-57
2022/09/07 04:02:09;;;;;;;4.25;2.03;;;;;;;;;;5110070;28;20218;-56
2022/09/07 04:04:37;;;;;;;4.32;2.40;;;;;;;;;;5116888;28;20210;-57
2022/09/07 04:07:05;;;;;;;7.38;2.00;;;;;;;;;;5112107;28;20257;-58
2022/09/07 04:09:32;;;;;;;4.57;2.20;;;;;;;;;;5116363;28;20314;-50
2022/09/07 04:11:59;;;;;;;4.38;1.90;;;;;;;;;;5115743;28;20685;-53
2022/09/07 04:14:26;;;;;;;6.75;2.40;;;;;;;;;;5097282;28;20222;-53
2022/09/07 04:16:53;;;;;;;4.57;2.10;;;;;;;;;;5096444;28;20701;-56
2022/09/07 04:19:21;;;;;;;6.50;2.85;;;;;;;;;;5097088;28;20238;-52
2022/09/07 04:21:48;;;;;;;5.07;2.50;;;;;;;;;;5097107;28;20237;-50
2022/09/07 04:24:16;;;;;;;6.50;3.08;;;;;;;;;;5097300;28;20218;-49
2022/09/07 04:26:43;;;;;;;6.43;2.78;;;;;;;;;;5096806;28;20235;-50
2022/09/07 04:29:11;;;;;;;7.07;2.88;;;;;;;;;;5096203;28;20223;-52
2022/09/07 04:31:38;;;;;;;5.95;2.83;;;;;;;;;;5096628;28;20313;-54
2022/09/07 04:34:06;;;;;;;8.27;3.55;;;;;;;;;;5096888;28;20219;-51
2022/09/07 04:36:33;;;;;;;11.35;4.57;;;;;;;;;;5096668;28;20683;-49
2022/09/07 04:39:03;;;;;;;10.82;3.50;;;;;;;;;;5096472;28;20744;-57
2022/09/07 04:41:31;;;;;;;11.77;4.72;;;;;;;;;;5097001;28;20238;-56
2022/09/07 04:44:00;;;;;;;10.32;3.58;;;;;;;;;;5096701;28;20227;-56
2022/09/07 04:46:29;;;;;;;6.53;3.00;;;;;;;;;;5101970;27;20282;-57
2022/09/07 04:48:58;;;;;;;8.10;2.90;;;;;;;;;;5115027;28;20221;-55
2022/09/07 04:51:28;;;;;;;9.55;2.60;;;;;;;;;;5114780;27;20226;-56
2022/09/07 04:53:56;;;;;;;30.80;3.47;;;;;;;;;;5113371;28;20325;-55
2022/09/07 04:56:24;;;;;;;58.47;6.97;;;;;;;;;;5102173;28;20233;-56
2022/09/07 04:58:51;;;;;;;46.85;5.45;;;;;;;;;;5114761;28;20214;-55
2022/09/07 05:01:20;;;;;;;33.72;5.00;;;;;;;;;;5113141;28;20279;-57
2022/09/07 05:03:48;;;;;;;18.85;3.72;;;;;;;;;;5114232;28;20217;-56
2022/09/07 05:06:17;;;;;;;4.03;2.65;;;;;;;;;;5113937;28;20217;-57
2022/09/07 05:08:46;;;;;;;14.60;2.50;;;;;;;;;;5115112;28;20214;-52
2022/09/07 05:11:14;;;;;;;8.50;2.50;;;;;;;;;;5115017;28;20894;-54
2022/09/07 05:13:41;;;;;;;9.00;3.20;;;;;;;;;;5115397;28;20283;-52
2022/09/07 05:16:16;;;;;;;13.85;2.72;;;;;;;;;;5113732;28;20241;-52
2022/09/07 05:18:44;;;;;;;10.65;3.45;;;;;;;;;;5096865;28;20221;-56
2022/09/07 05:21:14;;;;;;;9.43;2.90;;;;;;;;;;5096672;28;20214;-51
2022/09/07 05:23:41;;;;;;;12.32;3.08;;;;;;;;;;5096797;28;20302;-52
2022/09/07 05:26:10;;;;;;;7.45;2.60;;;;;;;;;;5096606;28;20207;-52
2022/09/07 05:28:37;;;;;;;9.68;2.83;;;;;;;;;;5096493;28;20658;-53
2022/09/07 05:31:09;;;;;;;7.03;2.88;;;;;;;;;;5096158;28;20211;-54
2022/09/07 05:33:47;;;;;;;6.72;2.80;;;;;;;;;;5096183;28;20194;-52
2022/09/07 05:36:34;;;;;;;4.47;2.70;;;;;;;;;;5094637;28;20215;-53
2022/09/07 05:39:03;;;;;;;5.85;2.33;;;;;;;;;;5095994;28;20206;-55
2022/09/07 05:41:30;;;;;;;4.38;2.35;;;;;;;;;;5096594;28;20275;-50
2022/09/07 05:43:57;;;;;;;3.58;2.10;;;;;;;;;;5095599;28;20631;-53
2022/09/07 05:46:44;;;;;;;5.72;2.88;;;;;;;;;;5096282;28;20214;-52
2022/09/07 05:49:11;;;;;;;5.78;2.65;;;;;;;;;;5094949;28;20213;-55
2022/09/07 05:51:38;;;;;;;3.63;2.40;;;;;;;;;;5096168;28;20206;-50
2022/09/07 05:54:05;;;;;;;3.60;2.53;;;;;;;;;;5096213;28;20199;-53
2022/09/07 05:56:34;;;;;;;6.10;3.00;;;;;;;;;;5095416;28;20233;-52
2022/09/07 05:59:02;;;;;;;9.27;3.30;;;;;;;;;;5094668;28;20298;-55
2022/09/07 06:01:29;;;;;;;5.40;3.00;;;;;;;;;;5095474;28;20256;-51
2022/09/07 06:03:56;;;;;;;5.78;2.90;;;;;;;;;;5095965;28;20630;-50
2022/09/07 06:06:23;;;;;;;6.45;4.15;;;;;;;;;;5094703;28;20209;-52
2022/09/07 06:08:52;;;;;;;7.53;3.85;;;;;;;;;;5094957;28;20523;-53
2022/09/07 06:11:22;;;;;;;8.07;3.83;;;;;;;;;;5094827;28;20206;-55
2022/09/07 06:13:50;;;;;;;6.80;3.85;;;;;;;;;;5095353;28;20211;-54
2022/09/07 06:16:18;;;;;;;6.95;3.67;;;;;;;;;;5095556;28;20203;-56
2022/09/07 06:18:47;;;;;;;7.65;4.30;;;;;;;;;;5095157;28;20276;-57
2022/09/07 06:21:16;;;;;;;7.72;3.75;;;;;;;;;;5093684;28;20292;-54
2022/09/07 06:23:44;;;;;;;6.57;4.00;;;;;;;;;;5094737;28;20271;-53
2022/09/07 06:26:11;;;;;;;11.13;4.13;;;;;;;;;;5094901;28;20206;-55
2022/09/07 06:28:41;;;;;;;6.53;4.28;;;;;;;;;;5095156;28;20202;-53
2022/09/07 06:31:17;;;;;;;9.25;4.07;;;;;;;;;;5095144;28;20720;-54
2022/09/07 06:33:44;;;;;;;7.32;4.20;;;;;;;;;;5094688;28;20268;-56
2022/09/07 06:36:14;;;;;;;10.68;4.82;;;;;;;;;;5094489;28;20639;-55
2022/09/07 06:38:41;;;;;;;9.85;5.05;;;;;;;;;;5094938;28;20203;-54
2022/09/07 06:41:11;;;;;;;7.88;4.22;;;;;;;;;;5094528;28;20291;-50
2022/09/07 06:43:58;;;;;;;7.60;3.88;;;;;;;;;;5092181;28;20206;-56
2022/09/07 06:46:25;;;;;;;8.55;4.20;;;;;;;;;;5094408;28;20210;-54
2022/09/07 06:49:12;;;;;;;9.57;4.55;;;;;;;;;;5094221;28;20209;-54
2022/09/07 06:51:39;;;;;;;10.43;4.50;;;;;;;;;;5094478;28;20228;-53
2022/09/07 06:54:06;;;;;;;11.55;4.60;;;;;;;;;;5093684;28;20248;-55
2022/09/07 06:56:54;;;;;;;7.45;4.20;;;;;;;;;;5094618;28;20198;-53
2022/09/07 06:59:21;;;;;;;7.80;3.80;;;;;;;;;;5095181;28;20198;-53
2022/09/07 07:01:48;;;;;;;7.75;3.90;;;;;;;;;;5095094;28;20223;-54
2022/09/07 07:04:15;;;;;;;8.57;4.30;;;;;;;;;;5094734;28;20635;-55
2022/09/07 07:06:42;;;;;;;5.93;3.60;;;;;;;;;;5091983;28;20259;-54
2022/09/07 07:09:11;;;;;;;6.28;3.78;;;;;;;;;;5094055;28;20216;-53
2022/09/07 07:11:38;;;;;;;7.38;4.03;;;;;;;;;;5094957;28;20202;-53
2022/09/07 07:14:05;;;;;;;5.88;3.10;;;;;;;;;;5095153;28;20263;-54
2022/09/07 07:16:32;;;;;;;8.30;3.20;;;;;;;;;;5095019;28;20209;-52
2022/09/07 07:18:59;;;;;;;9.10;3.55;;;;;;;;;;5094470;28;20218;-53
2022/09/07 07:21:26;;;;;;;4.88;3.08;;;;;;;;;;5094519;28;20547;-54
2022/09/07 07:24:13;;;;;;;7.80;2.80;;;;;;;;;;5093463;28;20676;-52
2022/09/07 07:26:42;;;;;;;6.22;2.90;;;;;;;;;;5094319;28;20582;-55
2022/09/07 07:29:09;;;;;;;5.78;2.83;;;;;;;;;;5094622;28;20537;-54
2022/09/07 07:31:38;;;;;;;6.68;3.15;;;;;;;;;;5094507;28;20551;-53
2022/09/07 07:34:06;;;;;;;5.72;2.80;;;;;;;;;;5094796;28;20203;-52
2022/09/07 07:36:33;;;;;;;5.75;2.60;;;;;;;;;;5110044;28;20602;-55
2022/09/07 07:39:00;;;;;;;5.35;2.20;;;;;;;;;;5093718;28;20198;-53
2022/09/07 07:41:30;;;;;;;5.00;2.38;;;;;;;;;;5093084;28;20218;-54
2022/09/07 07:44:17;;;;;;;3.08;1.30;;;;;;;;;;5094374;28;20203;-54
2022/09/07 07:46:49;;;;;;;2.65;1.73;;;;;;;;;;5094554;28;20301;-53
2022/09/07 07:49:17;;;;;;;5.50;1.90;;;;;;;;;;5092507;28;20201;-56
2022/09/07 07:51:44;;;;;;;3.15;1.60;;;;;;;;;;5094188;28;20211;-56
2022/09/07 07:54:37;;;;;;;3.00;1.30;;;;;;;;;;5093996;28;20313;-53
2022/09/07 07:57:04;;;;;;;1.63;1.25;;;;;;;;;;5110820;28;20208;-52
2022/09/07 07:59:32;;;;;;;2.00;1.20;;;;;;;;;;5094168;28;20289;-54
2022/09/07 08:02:03;;;;;;;2.33;1.10;;;;;;;;;;5095043;28;20226;-56
2022/09/07 08:04:32;;;;;;;2.30;1.00;;;;;;;;;;5098079;28;20199;-54
2022/09/07 08:06:59;;;;;;;2.85;0.90;;;;;;;;;;5097737;28;20203;-55
2022/09/07 08:09:31;;;;;;;4.32;1.10;;;;;;;;;;5098648;28;20198;-57
2022/09/07 08:11:58;;;;;;;2.20;1.30;;;;;;;;;;5097885;28;20240;-56
2022/09/07 08:14:25;;;;;;;2.33;1.10;;;;;;;;;;5097768;28;20218;-55
2022/09/07 08:16:52;;;;;;;1.92;0.80;;;;;;;;;;5096414;28;20587;-56
2022/09/07 08:19:19;;;;;;;1.95;0.88;;;;;;;;;;5096366;28;20499;-55
2022/09/07 08:21:46;;;;;;;3.33;0.90;;;;;;;;;;5097126;28;20218;-54
2022/09/07 08:24:13;;;;;;;2.47;0.80;;;;;;;;;;5098211;28;20210;-55
2022/09/07 08:26:40;;;;;;;1.45;0.85;;;;;;;;;;5097895;28;20251;-55
2022/09/07 08:29:07;;;;;;;3.03;1.15;;;;;;;;;;5097704;28;20625;-54
2022/09/07 08:31:34;;;;;;;2.10;0.80;;;;;;;;;;5097528;28;20640;-55
2022/09/07 08:34:01;;;;;;;3.88;0.90;;;;;;;;;;5098133;28;20210;-55
2022/09/07 08:36:30;;;;;;;1.80;0.70;;;;;;;;;;5097690;28;20294;-53
2022/09/07 08:38:58;;;;;;;2.90;1.13;;;;;;;;;;5098114;28;20525;-55
2022/09/07 08:41:50;;;;;;;3.30;0.90;;;;;;;;;;5097578;28;20237;-55
2022/09/07 08:44:17;;;;;;;4.68;1.23;;;;;;;;;;5113558;28;20217;-54
2022/09/07 08:46:47;;;;;;;1.75;1.40;;;;;;;;;;5096955;28;20203;-55
2022/09/07 08:49:43;;;;;;;2.58;1.17;;;;;;;;;;5096869;28;20274;-56
2022/09/07 08:52:41;;;;;;;3.50;1.40;;;;;;;;;;5099611;28;20199;-55
2022/09/07 08:55:24;;;;;;;4.65;1.10;;;;;;;;;;5097404;28;20528;-56
2022/09/07 08:58:23;;;;;;;4.57;1.23;;;;;;;;;;5097206;28;20259;-55
2022/09/07 09:01:22;;;;;;;2.83;1.25;;;;;;;;;;5097086;28;20268;-55
2022/09/07 09:03:57;;;;;;;2.67;1.20;;;;;;;;;;5111689;28;20183;-58
2022/09/07 09:06:47;;;;;;;2.17;1.10;;;;;;;;;;5109685;28;20202;-55
2022/09/07 09:09:36;;;;;;;5.88;1.40;;;;;;;;;;5097234;28;20214;-56
2022/09/07 09:12:32;;;;;;;2.88;1.08;;;;;;;;;;5094515;28;20812;-54
2022/09/07 09:15:22;;;;;;;3.67;1.20;;;;;;;;;;5096093;28;20271;-52
2022/09/07 09:18:05;;;;;;;2.67;0.95;;;;;;;;;;5096083;28;20255;-55
2022/09/07 09:20:56;;;;;;;4.07;1.10;;;;;;;;;;5111281;28;20210;-54
2022/09/07 09:23:30;;;;;;;4.43;1.48;;;;;;;;;;5095435;28;20202;-56
2022/09/07 09:26:01;;;;;;;3.30;1.33;;;;;;;;;;5095962;28;20202;-55
2022/09/07 09:28:28;;;;;;;3.45;1.38;;;;;;;;;;5112672;28;20202;-52
2022/09/07 09:30:58;;;;;;;4.22;1.58;;;;;;;;;;5094355;28;20500;-55
2022/09/07 09:33:27;;;;;;;2.28;1.30;;;;;;;;;;5096622;28;20302;-55
2022/09/07 09:35:56;;;;;;;2.53;1.30;;;;;;;;;;5096551;28;20240;-56
2022/09/07 09:38:32;;;;;;;3.33;1.40;;;;;;;;;;5096386;28;20199;-56
2022/09/07 09:41:10;;;;;;;3.22;1.23;;;;;;;;;;5096244;28;20232;-55
2022/09/07 09:43:54;;;;;;;4.90;1.30;;;;;;;;;;5113024;28;20202;-53
2022/09/07 09:46:26;;;;;;;5.82;1.65;;;;;;;;;;5096123;28;20214;-56
2022/09/07 09:48:59;;;;;;;3.65;1.35;;;;;;;;;;5110672;28;20295;-55
2022/09/07 09:51:29;;;;;;;5.40;1.10;;;;;;;;;;5110008;28;20226;-54
2022/09/07 09:54:36;;;;;;;5.53;1.13;;;;;;;;;;5108082;28;20210;-54
2022/09/07 09:57:03;;;;;;;4.93;1.30;;;;;;;;;;5094929;28;20187;-55
2022/09/07 09:59:32;;;;;;;8.02;1.70;;;;;;;;;;5096194;28;20516;-54
2022/09/07 10:02:29;;;;;;;4.03;1.25;;;;;;;;;;5109380;28;20207;-56
2022/09/07 10:05:27;;;;;;;1.35;0.90;;;;;;;;;;5095259;28;20199;-56
2022/09/07 10:07:55;;;;;;;2.10;1.30;;;;;;;;;;5095754;28;20286;-54
2022/09/07 10:10:24;;;;;;;5.13;1.33;;;;;;;;;;5095850;28;20210;-56
2022/09/07 10:12:53;;;;;;;2.28;1.08;;;;;;;;;;5111607;28;20222;-57
2022/09/07 10:15:35;;;;;;;4.15;0.80;;;;;;;;;;5093062;28;20202;-54
2022/09/07 10:18:17;;;;;;;2.65;1.33;;;;;;;;;;5110201;28;20274;-54
2022/09/07 10:20:44;;;;;;;5.28;1.00;;;;;;;;;;5094349;28;20526;-55
2022/09/07 10:23:22;;;;;;;4.65;1.25;;;;;;;;;;5095559;28;20530;-57
2022/09/07 10:25:49;;;;;;;2.13;1.23;;;;;;;;;;5094454;28;20207;-56
2022/09/07 10:28:22;;;;;;;3.38;1.13;;;;;;;;;;5095157;28;20209;-56
2022/09/07 10:31:05;;;;;;;5.50;1.40;;;;;;;;;;5095246;28;20305;-57
2022/09/07 10:33:53;;;;;;;4.85;1.20;;;;;;;;;;5096198;28;20218;-56
2022/09/07 10:36:47;;;;;;;1.95;1.10;;;;;;;;;;5095199;28;20198;-57
2022/09/07 10:39:22;;;;;;;13.73;1.58;;;;;;;;;;5095309;28;20251;-55
2022/09/07 10:41:58;;;;;;;3.33;1.67;;;;;;;;;;5095612;28;20313;-56
2022/09/07 10:44:50;;;;;;;6.95;1.10;;;;;;;;;;5095077;28;20198;-57
2022/09/07 10:47:33;;;;;;;3.15;1.08;;;;;;;;;;5094986;28;20230;-55
2022/09/07 10:50:23;;;;;;;2.53;1.20;;;;;;;;;;5104597;28;20522;-56
2022/09/07 10:52:50;;;;;;;1.92;1.10;;;;;;;;;;5112372;28;20229;-56
2022/09/07 10:55:25;;;;;;;2.63;0.98;;;;;;;;;;5112329;28;20201;-55
2022/09/07 10:58:10;;;;;;;3.40;1.38;;;;;;;;;;5108676;28;20205;-57
2022/09/07 11:00:49;;;;;;;26.33;1.67;;;;;;;;;;5111133;28;20527;-56
2022/09/07 11:03:34;;;;;;;4.72;1.10;;;;;;;;;;5107572;28;20193;-54
2022/09/07 11:06:07;;;;;;;3.45;0.90;;;;;;;;;;5112566;28;20303;-58
2022/09/07 11:08:51;;;;;;;3.15;1.05;;;;;;;;;;5107634;28;20272;-57
2022/09/07 11:11:43;;;;;;;4.25;1.25;;;;;;;;;;5112062;28;20193;-57
2022/09/07 11:14:36;;;;;;;8.15;1.00;;;;;;;;;;5110744;28;20267;-57
2022/09/07 11:17:26;;;;;;;2.13;1.00;;;;;;;;;;5112934;28;20202;-56
2022/09/07 11:20:14;;;;;;;2.17;1.17;;;;;;;;;;5109592;28;20277;-59
2022/09/07 11:22:45;;;;;;;2.00;1.00;;;;;;;;;;5111280;28;20241;-55
2022/09/07 11:25:30;;;;;;;2.35;1.13;;;;;;;;;;5111423;28;20222;-58
2022/09/07 11:28:01;;;;;;;7.55;1.40;;;;;;;;;;5111700;28;20250;-57
2022/09/07 11:30:34;;;;;;;1.45;0.90;;;;;;;;;;5110514;28;20190;-57
2022/09/07 11:33:16;;;;;;;3.25;1.20;;;;;;;;;;5112950;28;21678;-58
2022/09/07 11:35:50;;;;;;;1.77;1.00;;;;;;;;;;5113844;28;20281;-58
2022/09/07 11:38:26;;;;;;;8.65;1.00;;;;;;;;;;5116942;28;20220;-58
2022/09/07 11:41:12;;;;;;;2.03;1.20;;;;;;;;;;5118266;28;20205;-58
2022/09/07 11:43:53;;;;;;;1.45;0.90;;;;;;;;;;5117120;28;20205;-58
2022/09/07 11:46:31;;;;;;;4.22;1.00;;;;;;;;;;5117602;28;20208;-53
2022/09/07 11:48:58;;;;;;;3.83;1.20;;;;;;;;;;5116582;28;20187;-57
2022/09/07 11:51:39;;;;;;;4.07;1.42;;;;;;;;;;5116796;28;20206;-57
2022/09/07 11:54:36;;;;;;;2.15;1.27;;;;;;;;;;5117352;28;20205;-56
2022/09/07 11:57:13;;;;;;;1.85;1.42;;;;;;;;;;5116330;28;21019;-56
2022/09/07 12:00:12;;;;;;;5.18;1.55;;;;;;;;;;5112987;28;20202;-56
2022/09/07 12:02:47;;;;;;;3.78;1.50;;;;;;;;;;5116602;28;20636;-58
2022/09/07 12:05:47;;;;;;;5.88;1.05;;;;;;;;;;5112613;28;20190;-58
2022/09/07 12:08:23;;;;;;;3.10;1.10;;;;;;;;;;5115410;28;20201;-58
2022/09/07 12:11:04;;;;;;;3.00;1.10;;;;;;;;;;5115548;28;20190;-56
2022/09/07 12:13:39;;;;;;;3.97;1.20;;;;;;;;;;5117143;28;20182;-58
2022/09/07 12:16:28;;;;;;;6.22;1.25;;;;;;;;;;5114265;28;20193;-55
2022/09/07 12:19:16;;;;;;;2.67;0.90;;;;;;;;;;5115831;28;20219;-58
2022/09/07 12:21:49;;;;;;;3.13;1.20;;;;;;;;;;5114187;28;20701;-55
2022/09/07 12:24:34;;;;;;;1.67;0.98;;;;;;;;;;5115835;28;20613;-59
2022/09/07 12:27:20;;;;;;;8.23;1.48;;;;;;;;;;5113701;28;20179;-59
2022/09/07 12:30:10;;;;;;;1.80;0.90;;;;;;;;;;5117789;28;20198;-58
2022/09/07 12:32:46;;;;;;;3.20;1.00;;;;;;;;;;5086948;28;20233;-58
2022/09/07 12:35:25;;;;;;;1.85;0.75;;;;;;;;;;5102915;28;20198;-56
2022/09/07 12:37:56;;;;;;;4.38;1.20;;;;;;;;;;5102265;28;20703;-58
2022/09/07 12:40:26;;;;;;;8.95;1.02;;;;;;;;;;5116038;28;20704;-57
2022/09/07 12:43:11;;;;;;;4.95;1.73;;;;;;;;;;5115051;27;20253;-59
2022/09/07 12:45:38;;;;;;;2.40;1.08;;;;;;;;;;5116278;28;20221;-59
2022/09/07 12:48:50;;;;;;;3.40;0.93;;;;;;;;;;5109600;27;20230;-59
2022/09/07 12:51:22;;;;;;;5.18;1.40;;;;;;;;;;5101979;28;20745;-59
2022/09/07 12:54:28;;;;;;;3.55;1.17;;;;;;;;;;5111627;27;20226;-59
2022/09/07 12:57:08;;;;;;;5.10;1.10;;;;;;;;;;5112444;28;20230;-58
2022/09/07 13:00:05;;;;;;;2.88;1.02;;;;;;;;;;5111778;28;20500;-59
2022/09/07 13:02:52;;;;;;;3.05;1.40;;;;;;;;;;5114702;28;20241;-58
2022/09/07 13:05:53;;;;;;;2.42;1.00;;;;;;;;;;5111696;28;20218;-59
2022/09/07 13:08:48;;;;;;;5.07;1.10;;;;;;;;;;5111951;28;20303;-59
2022/09/07 13:11:24;;;;;;;4.50;1.25;;;;;;;;;;5113132;28;20241;-59
2022/09/07 13:13:57;;;;;;;2.22;0.90;;;;;;;;;;5112006;28;20221;-59
2022/09/07 13:16:37;;;;;;;5.53;1.10;;;;;;;;;;5115268;28;20240;-59
2022/09/07 13:19:49;;;;;;;3.15;1.20;;;;;;;;;;5114862;28;20218;-59
2022/09/07 13:22:31;;;;;;;3.50;1.15;;;;;;;;;;5113425;28;20233;-59
2022/09/07 13:25:00;;;;;;;3.22;1.02;;;;;;;;;;5113679;27;20222;-59
2022/09/07 13:27:36;;;;;;;1.42;0.80;;;;;;;;;;5078994;28;20260;-59
2022/09/07 13:30:15;;;;;;;1.60;0.80;;;;;;;;;;5110183;28;20225;-59
2022/09/07 13:32:42;;;;;;;1.85;0.90;;;;;;;;;;5112131;28;20214;-59
2022/09/07 13:35:30;;;;;;;4.63;0.93;;;;;;;;;;5112827;27;20222;-59
2022/09/07 13:37:59;;;;;;;3.63;1.10;;;;;;;;;;5113865;27;20232;-59
2022/09/07 13:40:29;;;;;;;4.22;1.42;;;;;;;;;;5115061;28;20222;-59
2022/09/07 13:42:58;;;;;;;1.73;1.00;;;;;;;;;;5114162;28;20282;-59
2022/09/07 13:45:47;;;;;;;2.45;1.00;;;;;;;;;;5114296;28;20236;-59
2022/09/07 13:48:29;;;;;;;5.78;1.35;;;;;;;;;;5115209;28;20244;-59
2022/09/07 13:51:07;;;;;;;4.22;1.00;;;;;;;;;;5113060;28;20256;-59
2022/09/07 13:53:54;;;;;;;2.65;1.27;;;;;;;;;;5115046;28;20221;-59
2022/09/07 13:56:27;;;;;;;4.30;1.20;;;;;;;;;;5108038;28;20218;-59
2022/09/07 13:58:55;;;;;;;1.77;0.98;;;;;;;;;;5115425;28;20209;-59
2022/09/07 14:01:24;;;;;;;5.82;1.38;;;;;;;;;;5115719;28;20214;-59
2022/09/07 14:04:06;;;;;;;2.35;1.00;;;;;;;;;;5115497;28;20238;-59
2022/09/07 14:06:34;;;;;;;1.80;1.10;;;;;;;;;;5114477;28;20217;-59
2022/09/07 14:09:05;;;;;;;2.47;1.20;;;;;;;;;;5115177;28;20351;-59
2022/09/07 14:12:03;;;;;;;3.40;1.00;;;;;;;;;;5115505;28;20225;-59
2022/09/07 14:14:33;;;;;;;2.35;1.02;;;;;;;;;;5072121;28;20231;-60
2022/09/07 14:17:03;;;;;;;2.25;1.00;;;;;;;;;;5061818;28;20234;-59
2022/09/07 14:19:47;;;;;;;4.28;1.40;;;;;;;;;;5072597;28;20612;-59
2022/09/07 14:22:29;;;;;;;4.93;1.27;;;;;;;;;;5072195;28;20230;-59
2022/09/07 14:24:58;;;;;;;7.68;1.52;;;;;;;;;;5071165;28;20243;-59
2022/09/07 14:27:36;;;;;;;2.03;1.15;;;;;;;;;;5072642;28;20242;-59
2022/09/07 14:30:27;;;;;;;5.93;1.02;;;;;;;;;;5071343;28;20629;-59
2022/09/07 14:32:55;;;;;;;5.05;1.42;;;;;;;;;;5072270;28;20285;-59
2022/09/07 14:35:27;;;;;;;2.25;1.10;;;;;;;;;;5055663;28;20260;-59
2022/09/07 14:38:19;;;;;;;7.57;0.95;;;;;;;;;;5055290;28;20601;-59
2022/09/07 14:41:09;;;;;;;5.15;1.02;;;;;;;;;;5069985;28;20247;-59
2022/09/07 14:43:38;;;;;;;3.92;1.23;;;;;;;;;;5055958;28;20242;-59
2022/09/07 14:46:16;;;;;;;2.42;0.93;;;;;;;;;;5071711;28;20680;-59
2022/09/07 14:48:45;;;;;;;3.50;0.98;;;;;;;;;;5065210;28;20605;-58
2022/09/07 14:51:23;;;;;;;2.08;0.70;;;;;;;;;;5098101;27;20236;-59
2022/09/07 14:54:04;;;;;;;2.63;1.05;;;;;;;;;;5114289;28;20331;-59
2022/09/07 14:56:36;;;;;;;2.15;1.20;;;;;;;;;;5113410;28;20662;-58
2022/09/07 14:59:27;;;;;;;2.78;1.08;;;;;;;;;;5114538;28;20226;-59
2022/09/07 15:02:22;;;;;;;3.58;1.05;;;;;;;;;;5114218;28;20238;-58
2022/09/07 15:05:19;;;;;;;4.00;1.20;;;;;;;;;;5113816;28;20221;-59
2022/09/07 15:08:01;;;;;;;3.25;0.82;;;;;;;;;;5114172;28;20233;-58
2022/09/07 15:10:35;;;;;;;2.38;0.95;;;;;;;;;;5114354;28;20241;-59
2022/09/07 15:13:04;;;;;;;2.22;1.10;;;;;;;;;;5113788;27;20221;-59
2022/09/07 15:15:35;;;;;;;4.60;0.90;;;;;;;;;;5114315;28;20257;-59
2022/09/07 15:18:40;;;;;;;5.47;1.30;;;;;;;;;;5112920;28;20233;-59
2022/09/07 15:21:08;;;;;;;4.95;1.20;;;;;;;;;;5114201;27;20228;-59
2022/09/07 15:23:34;;;;;;;2.78;1.17;;;;;;;;;;5113531;28;20222;-59
2022/09/07 15:26:02;;;;;;;3.40;1.30;;;;;;;;;;5114187;28;20308;-59
2022/09/07 15:28:31;;;;;;;9.27;1.45;;;;;;;;;;5113105;28;20229;-59
2022/09/07 15:31:19;;;;;;;3.53;0.93;;;;;;;;;;5112838;27;20221;-57